Oosterschelde — PGNP — position and weather

sailwx.info

Track history (hours):
 
Tides and Currents Weather Stations Pressure Air Temp Water Temp Dewpoint Dewpoint Depression Visibility Wind Speed Wind Dir Waves Ship Positions

Oosterschelde (Netherlands)

Ship's website: http://www.oosterschelde.nl/indexuk.htm

Last reported at 2017-Apr-16 00:46 UTC. Time now 2017-Apr-29 03:37 UTC.
Position N 18°28' W 064°56'.
Warning: this ship's position is 13 days out of date.

Length 49 m; draft 2.9 m.

Type: Sailing vessel. MMSI: 246010985.

Date/timePositionNaut miles runAvg speedWind from/ knotsBaromVisibWave heightAir tempDewpointWater temp
2017-Apr-16 00:46N 18°28' W 064°56'2 5.9
2017-Apr-16 00:29N 18°27' W 064°54'3 5.8
2017-Apr-16 00:00N 18°25' W 064°52'3 6.1
2017-Apr-15 23:30N 18°26' W 064°49'3 6.1
2017-Apr-15 23:00N 18°26' W 064°45'1 0.9
2017-Apr-15 22:22N 18°26' W 064°45'0 0.0
2017-Apr-15 21:58N 18°26' W 064°45'0 0.0
2017-Apr-15 21:28N 18°26' W 064°45'0 0.0
2017-Apr-15 20:58N 18°26' W 064°45'0 0.0
2017-Apr-15 19:52N 18°26' W 064°45'0 0.0
2017-Apr-15 19:28N 18°26' W 064°45'0 0.2
2017-Apr-15 19:00N 18°26' W 064°45'2 4.1
2017-Apr-15 18:30N 18°26' W 064°43'1 1.9
2017-Apr-15 18:00N 18°27' W 064°43'0 0.0
2017-Apr-15 17:30N 18°27' W 064°43'0 0.0
2017-Apr-15 17:00N 18°27' W 064°43'0 0.0
2017-Apr-15 16:30N 18°27' W 064°43'0 0.0
2017-Apr-15 16:00N 18°27' W 064°43'0 0.0
2017-Apr-15 15:30N 18°27' W 064°43'0 0.0
2017-Apr-15 15:00N 18°27' W 064°43'0 0.0
2017-Apr-15 14:30N 18°27' W 064°43'0 0.0
2017-Apr-15 13:30N 18°27' W 064°43'0 0.2
2017-Apr-15 13:00N 18°27' W 064°43'1 2.6
2017-Apr-15 12:30N 18°27' W 064°42'2 4.9
2017-Apr-15 12:00N 18°29' W 064°40'2 4.1
2017-Apr-15 11:30N 18°29' W 064°38'2 4.3
2017-Apr-15 11:00N 18°30' W 064°35'3 5.6
2017-Apr-15 10:29N 18°30' W 064°32'4 6.1
2017-Apr-15 09:51N 18°28' W 064°29'2 4.9
2017-Apr-15 09:30N 18°28' W 064°27'1 0.9
2017-Apr-15 08:40N 18°27' W 064°27'0 0.0
2017-Apr-15 08:28N 18°27' W 064°27'0 0.0
2017-Apr-15 07:46N 18°27' W 064°27'0 0.0
2017-Apr-15 07:22N 18°27' W 064°27'0 0.0
2017-Apr-15 06:52N 18°27' W 064°27'0 0.0
2017-Apr-15 06:04N 18°27' W 064°27'0 0.0
2017-Apr-15 05:58N 18°27' W 064°27'0 0.0
2017-Apr-15 03:34N 18°27' W 064°27'0 0.0
2017-Apr-15 00:28N 18°27' W 064°27'0 0.0
2017-Apr-14 18:16N 18°27' W 064°27'0 0.0
2017-Apr-14 10:34N 18°27' W 064°27'1 2.7
2017-Apr-14 10:06N 18°26' W 064°27'0 4.6
2017-Apr-14 10:00N 18°26' W 064°28'67 4.6
2017-Apr-13 19:31N 18°14' W 063°18'0 3.0
2017-Apr-13 19:27N 18°14' W 063°18'3 2.7
2017-Apr-13 18:22N 18°12' W 063°16'1 2.5
2017-Apr-13 17:53N 18°11' W 063°15'2 2.7
2017-Apr-13 17:07N 18°10' W 063°14'1 2.9
2017-Apr-13 16:55N 18°10' W 063°13'1 3.1
2017-Apr-13 16:28N 18°09' W 063°12'3 5.2
2017-Apr-13 15:59N 18°08' W 063°09'  
2017-Apr-10 19:07N 18°06' W 063°05'1 5.5
2017-Apr-10 18:51N 18°05' W 063°06'1 1.8
2017-Apr-10 18:22N 18°05' W 063°05'0 0.1
2017-Apr-10 17:52N 18°05' W 063°05'0 0.5
2017-Apr-10 17:30N 18°05' W 063°06'46 4.6
2017-Apr-10 07:36N 17°38' W 062°26'1 6.3
2017-Apr-10 07:24N 17°37' W 062°25'3 6.3
2017-Apr-10 07:00N 17°35' W 062°24'3 6.6
2017-Apr-10 06:30N 17°33' W 062°21'3 7.0
2017-Apr-10 06:00N 17°30' W 062°19'2 3.7
2017-Apr-10 05:30N 17°28' W 062°18'2 3.8
2017-Apr-10 05:00N 17°27' W 062°17'2 4.8
2017-Apr-10 04:30N 17°25' W 062°16'2 4.8
2017-Apr-10 04:00N 17°23' W 062°14'3 6.0
2017-Apr-10 03:30N 17°21' W 062°12'2 3.6
2017-Apr-10 03:00N 17°19' W 062°11'1 2.8
2017-Apr-10 02:30N 17°18' W 062°10'2 4.0
2017-Apr-10 02:00N 17°17' W 062°08'2 4.3
2017-Apr-10 01:31N 17°15' W 062°07'2 3.9
2017-Apr-10 01:00N 17°14' W 062°05'2 3.6
2017-Apr-10 00:30N 17°13' W 062°04'2 3.8
2017-Apr-10 00:00N 17°12' W 062°02'2 4.4
2017-Apr-09 23:30N 17°10' W 062°01'2 4.7
2017-Apr-09 23:00N 17°09' W 061°59'3 5.5
2017-Apr-09 22:30N 17°06' W 061°57'2 4.4
2017-Apr-09 22:00N 17°05' W 061°55'1 2.4
2017-Apr-09 21:29N 17°05' W 061°54'0 0.0
2017-Apr-09 20:59N 17°05' W 061°54'0 0.0
2017-Apr-09 20:29N 17°05' W 061°54'0 0.0
2017-Apr-09 19:56N 17°05' W 061°54'0 0.0
2017-Apr-09 19:29N 17°05' W 061°54'0 0.0
2017-Apr-09 18:47N 17°05' W 061°54'0 0.0
2017-Apr-09 18:29N 17°05' W 061°54'0 0.0
2017-Apr-09 17:44N 17°05' W 061°54'0 0.1
2017-Apr-09 17:30N 17°05' W 061°54'2 3.8
2017-Apr-09 17:00N 17°05' W 061°56'2 3.7
2017-Apr-09 16:30N 17°04' W 061°57'3 5.2
2017-Apr-09 16:00N 17°01' W 061°55'3 5.7
2017-Apr-09 15:30N 16°59' W 061°53'3 5.5
2017-Apr-09 15:00N 17°00' W 061°51'4 4.1
2017-Apr-09 14:00N 17°01' W 061°47'0 0.4
2017-Apr-09 13:29N 17°01' W 061°46'0 0.0
2017-Apr-09 12:59N 17°01' W 061°46'0 0.0
2017-Apr-09 12:29N 17°01' W 061°46'0 0.0
2017-Apr-09 11:59N 17°01' W 061°46'0 0.0
2017-Apr-09 11:29N 17°01' W 061°46'0 0.0
2017-Apr-09 10:59N 17°01' W 061°46'0 0.0
2017-Apr-09 10:26N 17°01' W 061°46'0 0.0
2017-Apr-09 09:59N 17°01' W 061°46'0 0.0
2017-Apr-09 09:29N 17°01' W 061°46'0 0.0
2017-Apr-09 08:59N 17°01' W 061°46'0 0.0
2017-Apr-09 08:29N 17°01' W 061°46'0 0.0
2017-Apr-09 07:59N 17°01' W 061°46'0 0.0
2017-Apr-09 07:29N 17°01' W 061°46'0 0.0
2017-Apr-09 06:59N 17°01' W 061°46'0 0.0
2017-Apr-09 06:29N 17°01' W 061°46'0 0.0
2017-Apr-09 05:59N 17°01' W 061°46'0 0.0
2017-Apr-09 05:29N 17°01' W 061°46'0 0.0
2017-Apr-09 04:59N 17°01' W 061°46'0 0.0
2017-Apr-09 04:29N 17°01' W 061°46'0 0.0
2017-Apr-09 03:59N 17°01' W 061°46'0 0.0
2017-Apr-09 03:29N 17°01' W 061°46'0 0.0
2017-Apr-09 02:59N 17°01' W 061°46'0 0.0
2017-Apr-09 02:04N 17°01' W 061°46'0 0.0
2017-Apr-09 01:58N 17°01' W 061°46'0 0.0
2017-Apr-09 01:29N 17°01' W 061°46'0 0.0
2017-Apr-09 00:58N 17°01' W 061°46'0 0.0
2017-Apr-09 00:28N 17°01' W 061°46'0 0.0
2017-Apr-08 23:58N 17°01' W 061°46'0 0.0
2017-Apr-08 23:28N 17°01' W 061°46'0 0.0
2017-Apr-08 22:58N 17°01' W 061°46'0 0.0
2017-Apr-08 22:28N 17°01' W 061°46'0 0.0
2017-Apr-08 21:58N 17°01' W 061°46'0 0.0
2017-Apr-08 21:28N 17°01' W 061°46'0 0.0
2017-Apr-08 20:58N 17°01' W 061°46'0 0.0
2017-Apr-08 20:28N 17°01' W 061°46'0 0.0
2017-Apr-08 19:58N 17°01' W 061°46'0 0.0
2017-Apr-08 19:28N 17°01' W 061°46'0 0.0
2017-Apr-08 18:58N 17°01' W 061°46'0 0.0
2017-Apr-08 18:28N 17°01' W 061°46'0 0.0
2017-Apr-08 17:58N 17°01' W 061°46'0 0.0
2017-Apr-08 17:28N 17°01' W 061°46'0 0.0
2017-Apr-08 16:58N 17°01' W 061°46'0 0.0
2017-Apr-08 16:28N 17°01' W 061°46'0 0.0
2017-Apr-08 15:58N 17°01' W 061°46'0 0.0
2017-Apr-08 15:28N 17°01' W 061°46'0 0.0
2017-Apr-08 12:56N 17°01' W 061°46'0 0.4
2017-Apr-08 12:30N 17°01' W 061°46'1 1.5
2017-Apr-08 11:54N 17°00' W 061°46'1 1.8
2017-Apr-08 11:29N 16°60' W 061°46'3 5.7
2017-Apr-08 11:00N 16°59' W 061°49'3 5.5
2017-Apr-08 10:28N 16°58' W 061°52'3 6.9
2017-Apr-08 09:59N 16°57' W 061°55'3 6.7
2017-Apr-08 09:30N 16°56' W 061°59'3 5.9
2017-Apr-08 08:59N 16°55' W 062°02'4 6.6
2017-Apr-08 08:26N 16°54' W 062°05'3 6.8
2017-Apr-08 08:00N 16°53' W 062°08'4 6.9
2017-Apr-08 07:28N 16°52' W 062°12'3 5.9
2017-Apr-08 07:00N 16°49' W 062°13'1 0.3
2017-Apr-08 03:01N 16°48' W 062°13'0 0.0
2017-Apr-08 02:49N 16°48' W 062°13'0 0.0
2017-Apr-07 06:52N 16°48' W 062°13'0 0.0
2017-Apr-07 06:28N 16°48' W 062°13'0 0.0
2017-Apr-07 05:58N 16°48' W 062°13'0 0.0
2017-Apr-07 05:01N 16°48' W 062°13'0 0.0
2017-Apr-07 03:01N 16°48' W 062°13'0 0.1
2017-Apr-07 02:55N 16°48' W 062°13'0 0.0
2017-Apr-07 02:25N 16°48' W 062°13'0 0.0
2017-Apr-07 01:52N 16°48' W 062°13'0 0.0
2017-Apr-07 00:43N 16°48' W 062°13'0 0.0
2017-Apr-07 00:28N 16°48' W 062°13'0 0.0
2017-Apr-06 23:58N 16°48' W 062°13'0 0.0
2017-Apr-06 23:28N 16°48' W 062°13'0 0.0
2017-Apr-06 22:46N 16°48' W 062°13'0 0.0
2017-Apr-06 22:25N 16°48' W 062°13'0 1.1
2017-Apr-06 22:00N 16°48' W 062°13'2 3.6
2017-Apr-06 21:30N 16°50' W 062°13'2 3.6
2017-Apr-06 21:00N 16°51' W 062°11'3 5.7
2017-Apr-06 20:30N 16°49' W 062°09'3 5.8
2017-Apr-06 20:00N 16°47' W 062°08'3 5.9
2017-Apr-06 19:30N 16°44' W 062°06'3 5.8
2017-Apr-06 19:00N 16°42' W 062°04'3 6.5
2017-Apr-06 18:30N 16°39' W 062°02'3 6.6
2017-Apr-06 18:00N 16°37' W 062°00'3 6.7
2017-Apr-06 17:30N 16°34' W 061°58'3 6.3
2017-Apr-06 17:00N 16°31' W 061°57'3 6.4
2017-Apr-06 16:30N 16°28' W 061°55'3 6.2
2017-Apr-06 16:00N 16°26' W 061°53'3 6.5
2017-Apr-06 15:30N 16°23' W 061°51'3 6.3
2017-Apr-06 15:00N 16°20' W 061°50'2 3.6
2017-Apr-06 14:30N 16°19' W 061°49'0 0.4
2017-Apr-06 13:27N 16°19' W 061°48'0 0.0
2017-Apr-06 13:00N 16°19' W 061°48'0 0.0
2017-Apr-06 12:29N 16°19' W 061°48'0 0.0
2017-Apr-06 12:00N 16°19' W 061°48'0 0.4
2017-Apr-06 11:30N 16°18' W 061°48'2 4.2
2017-Apr-06 10:58N 16°16' W 061°49'22 6.6
2017-Apr-06 07:40N 15°55' W 061°48'1 5.3
2017-Apr-06 07:29N 15°54' W 061°47'  
Track history (hours):
 
Tides and Currents Weather Stations Pressure Air Temp Water Temp Dewpoint Dewpoint Depression Visibility Wind Speed Wind Dir Waves Ship Positions

Oosterschelde (Netherlands)

Ship's website: http://www.oosterschelde.nl/indexuk.htm

Last reported at 2017-Apr-16 00:46 UTC. Time now 2017-Apr-29 03:37 UTC.
Position N 18°28' W 064°56'.
Warning: this ship's position is 13 days out of date.

Length 49 m; draft 2.9 m.

Type: Sailing vessel. MMSI: 246010985.

Date/timePositionNaut miles runAvg speedWind from/ knotsBaromVisibWave heightAir tempDewpointWater temp
2017-Apr-16 00:46N 18°28' W 064°56'2 5.9
2017-Apr-16 00:29N 18°27' W 064°54'3 5.8
2017-Apr-16 00:00N 18°25' W 064°52'3 6.1
2017-Apr-15 23:30N 18°26' W 064°49'3 6.1
2017-Apr-15 23:00N 18°26' W 064°45'1 0.9
2017-Apr-15 22:22N 18°26' W 064°45'0 0.0
2017-Apr-15 21:58N 18°26' W 064°45'0 0.0
2017-Apr-15 21:28N 18°26' W 064°45'0 0.0
2017-Apr-15 20:58N 18°26' W 064°45'0 0.0
2017-Apr-15 19:52N 18°26' W 064°45'0 0.0
2017-Apr-15 19:28N 18°26' W 064°45'0 0.2
2017-Apr-15 19:00N 18°26' W 064°45'2 4.1
2017-Apr-15 18:30N 18°26' W 064°43'1 1.9
2017-Apr-15 18:00N 18°27' W 064°43'0 0.0
2017-Apr-15 17:30N 18°27' W 064°43'0 0.0
2017-Apr-15 17:00N 18°27' W 064°43'0 0.0
2017-Apr-15 16:30N 18°27' W 064°43'0 0.0
2017-Apr-15 16:00N 18°27' W 064°43'0 0.0
2017-Apr-15 15:30N 18°27' W 064°43'0 0.0
2017-Apr-15 15:00N 18°27' W 064°43'0 0.0
2017-Apr-15 14:30N 18°27' W 064°43'0 0.0
2017-Apr-15 13:30N 18°27' W 064°43'0 0.2
2017-Apr-15 13:00N 18°27' W 064°43'1 2.6
2017-Apr-15 12:30N 18°27' W 064°42'2 4.9
2017-Apr-15 12:00N 18°29' W 064°40'2 4.1
2017-Apr-15 11:30N 18°29' W 064°38'2 4.3
2017-Apr-15 11:00N 18°30' W 064°35'3 5.6
2017-Apr-15 10:29N 18°30' W 064°32'4 6.1
2017-Apr-15 09:51N 18°28' W 064°29'2 4.9
2017-Apr-15 09:30N 18°28' W 064°27'1 0.9
2017-Apr-15 08:40N 18°27' W 064°27'0 0.0
2017-Apr-15 08:28N 18°27' W 064°27'0 0.0
2017-Apr-15 07:46N 18°27' W 064°27'0 0.0
2017-Apr-15 07:22N 18°27' W 064°27'0 0.0
2017-Apr-15 06:52N 18°27' W 064°27'0 0.0
2017-Apr-15 06:04N 18°27' W 064°27'0 0.0
2017-Apr-15 05:58N 18°27' W 064°27'0 0.0
2017-Apr-15 03:34N 18°27' W 064°27'0 0.0
2017-Apr-15 00:28N 18°27' W 064°27'0 0.0
2017-Apr-14 18:16N 18°27' W 064°27'0 0.0
2017-Apr-14 10:34N 18°27' W 064°27'1 2.7
2017-Apr-14 10:06N 18°26' W 064°27'0 4.6
2017-Apr-14 10:00N 18°26' W 064°28'67 4.6
2017-Apr-13 19:31N 18°14' W 063°18'0 3.0
2017-Apr-13 19:27N 18°14' W 063°18'3 2.7
2017-Apr-13 18:22N 18°12' W 063°16'1 2.5
2017-Apr-13 17:53N 18°11' W 063°15'2 2.7
2017-Apr-13 17:07N 18°10' W 063°14'1 2.9
2017-Apr-13 16:55N 18°10' W 063°13'1 3.1
2017-Apr-13 16:28N 18°09' W 063°12'3 5.2
2017-Apr-13 15:59N 18°08' W 063°09'  
2017-Apr-10 19:07N 18°06' W 063°05'1 5.5
2017-Apr-10 18:51N 18°05' W 063°06'1 1.8
2017-Apr-10 18:22N 18°05' W 063°05'0 0.1
2017-Apr-10 17:52N 18°05' W 063°05'0 0.5
2017-Apr-10 17:30N 18°05' W 063°06'46 4.6
2017-Apr-10 07:36N 17°38' W 062°26'1 6.3
2017-Apr-10 07:24N 17°37' W 062°25'3 6.3
2017-Apr-10 07:00N 17°35' W 062°24'3 6.6
2017-Apr-10 06:30N 17°33' W 062°21'3 7.0
2017-Apr-10 06:00N 17°30' W 062°19'2 3.7
2017-Apr-10 05:30N 17°28' W 062°18'2 3.8
2017-Apr-10 05:00N 17°27' W 062°17'2 4.8
2017-Apr-10 04:30N 17°25' W 062°16'2 4.8
2017-Apr-10 04:00N 17°23' W 062°14'3 6.0
2017-Apr-10 03:30N 17°21' W 062°12'2 3.6
2017-Apr-10 03:00N 17°19' W 062°11'1 2.8
2017-Apr-10 02:30N 17°18' W 062°10'2 4.0
2017-Apr-10 02:00N 17°17' W 062°08'2 4.3
2017-Apr-10 01:31N 17°15' W 062°07'2 3.9
2017-Apr-10 01:00N 17°14' W 062°05'2 3.6
2017-Apr-10 00:30N 17°13' W 062°04'2 3.8
2017-Apr-10 00:00N 17°12' W 062°02'2 4.4
2017-Apr-09 23:30N 17°10' W 062°01'2 4.7
2017-Apr-09 23:00N 17°09' W 061°59'3 5.5
2017-Apr-09 22:30N 17°06' W 061°57'2 4.4
2017-Apr-09 22:00N 17°05' W 061°55'1 2.4
2017-Apr-09 21:29N 17°05' W 061°54'0 0.0
2017-Apr-09 20:59N 17°05' W 061°54'0 0.0
2017-Apr-09 20:29N 17°05' W 061°54'0 0.0
2017-Apr-09 19:56N 17°05' W 061°54'0 0.0
2017-Apr-09 19:29N 17°05' W 061°54'0 0.0
2017-Apr-09 18:47N 17°05' W 061°54'0 0.0
2017-Apr-09 18:29N 17°05' W 061°54'0 0.0
2017-Apr-09 17:44N 17°05' W 061°54'0 0.1
2017-Apr-09 17:30N 17°05' W 061°54'2 3.8
2017-Apr-09 17:00N 17°05' W 061°56'2 3.7
2017-Apr-09 16:30N 17°04' W 061°57'3 5.2
2017-Apr-09 16:00N 17°01' W 061°55'3 5.7
2017-Apr-09 15:30N 16°59' W 061°53'3 5.5
2017-Apr-09 15:00N 17°00' W 061°51'4 4.1
2017-Apr-09 14:00N 17°01' W 061°47'0 0.4
2017-Apr-09 13:29N 17°01' W 061°46'0 0.0
2017-Apr-09 12:59N 17°01' W 061°46'0 0.0
2017-Apr-09 12:29N 17°01' W 061°46'0 0.0
2017-Apr-09 11:59N 17°01' W 061°46'0 0.0
2017-Apr-09 11:29N 17°01' W 061°46'0 0.0
2017-Apr-09 10:59N 17°01' W 061°46'0 0.0
2017-Apr-09 10:26N 17°01' W 061°46'0 0.0
2017-Apr-09 09:59N 17°01' W 061°46'0 0.0
2017-Apr-09 09:29N 17°01' W 061°46'0 0.0
2017-Apr-09 08:59N 17°01' W 061°46'0 0.0
2017-Apr-09 08:29N 17°01' W 061°46'0 0.0
2017-Apr-09 07:59N 17°01' W 061°46'0 0.0
2017-Apr-09 07:29N 17°01' W 061°46'0 0.0
2017-Apr-09 06:59N 17°01' W 061°46'0 0.0
2017-Apr-09 06:29N 17°01' W 061°46'0 0.0
2017-Apr-09 05:59N 17°01' W 061°46'0 0.0
2017-Apr-09 05:29N 17°01' W 061°46'0 0.0
2017-Apr-09 04:59N 17°01' W 061°46'0 0.0
2017-Apr-09 04:29N 17°01' W 061°46'0 0.0
2017-Apr-09 03:59N 17°01' W 061°46'0 0.0
2017-Apr-09 03:29N 17°01' W 061°46'0 0.0
2017-Apr-09 02:59N 17°01' W 061°46'0 0.0
2017-Apr-09 02:04N 17°01' W 061°46'0 0.0
2017-Apr-09 01:58N 17°01' W 061°46'0 0.0
2017-Apr-09 01:29N 17°01' W 061°46'0 0.0
2017-Apr-09 00:58N 17°01' W 061°46'0 0.0
2017-Apr-09 00:28N 17°01' W 061°46'0 0.0
2017-Apr-08 23:58N 17°01' W 061°46'0 0.0
2017-Apr-08 23:28N 17°01' W 061°46'0 0.0
2017-Apr-08 22:58N 17°01' W 061°46'0 0.0
2017-Apr-08 22:28N 17°01' W 061°46'0 0.0
2017-Apr-08 21:58N 17°01' W 061°46'0 0.0
2017-Apr-08 21:28N 17°01' W 061°46'0 0.0
2017-Apr-08 20:58N 17°01' W 061°46'0 0.0
2017-Apr-08 20:28N 17°01' W 061°46'0 0.0
2017-Apr-08 19:58N 17°01' W 061°46'0 0.0
2017-Apr-08 19:28N 17°01' W 061°46'0 0.0
2017-Apr-08 18:58N 17°01' W 061°46'0 0.0
2017-Apr-08 18:28N 17°01' W 061°46'0 0.0
2017-Apr-08 17:58N 17°01' W 061°46'0 0.0
2017-Apr-08 17:28N 17°01' W 061°46'0 0.0
2017-Apr-08 16:58N 17°01' W 061°46'0 0.0
2017-Apr-08 16:28N 17°01' W 061°46'0 0.0
2017-Apr-08 15:58N 17°01' W 061°46'0 0.0
2017-Apr-08 15:28N 17°01' W 061°46'0 0.0
2017-Apr-08 12:56N 17°01' W 061°46'0 0.4
2017-Apr-08 12:30N 17°01' W 061°46'1 1.5
2017-Apr-08 11:54N 17°00' W 061°46'1 1.8
2017-Apr-08 11:29N 16°60' W 061°46'3 5.7
2017-Apr-08 11:00N 16°59' W 061°49'3 5.5
2017-Apr-08 10:28N 16°58' W 061°52'3 6.9
2017-Apr-08 09:59N 16°57' W 061°55'3 6.7
2017-Apr-08 09:30N 16°56' W 061°59'3 5.9
2017-Apr-08 08:59N 16°55' W 062°02'4 6.6
2017-Apr-08 08:26N 16°54' W 062°05'3 6.8
2017-Apr-08 08:00N 16°53' W 062°08'4 6.9
2017-Apr-08 07:28N 16°52' W 062°12'3 5.9
2017-Apr-08 07:00N 16°49' W 062°13'1 0.3
2017-Apr-08 03:01N 16°48' W 062°13'0 0.0
2017-Apr-08 02:49N 16°48' W 062°13'0 0.0
2017-Apr-07 06:52N 16°48' W 062°13'0 0.0
2017-Apr-07 06:28N 16°48' W 062°13'0 0.0
2017-Apr-07 05:58N 16°48' W 062°13'0 0.0
2017-Apr-07 05:01N 16°48' W 062°13'0 0.0
2017-Apr-07 03:01N 16°48' W 062°13'0 0.1
2017-Apr-07 02:55N 16°48' W 062°13'0 0.0
2017-Apr-07 02:25N 16°48' W 062°13'0 0.0
2017-Apr-07 01:52N 16°48' W 062°13'0 0.0
2017-Apr-07 00:43N 16°48' W 062°13'0 0.0
2017-Apr-07 00:28N 16°48' W 062°13'0 0.0
2017-Apr-06 23:58N 16°48' W 062°13'0 0.0
2017-Apr-06 23:28N 16°48' W 062°13'0 0.0
2017-Apr-06 22:46N 16°48' W 062°13'0 0.0
2017-Apr-06 22:25N 16°48' W 062°13'0 1.1
2017-Apr-06 22:00N 16°48' W 062°13'2 3.6
2017-Apr-06 21:30N 16°50' W 062°13'2 3.6
2017-Apr-06 21:00N 16°51' W 062°11'3 5.7
2017-Apr-06 20:30N 16°49' W 062°09'3 5.8
2017-Apr-06 20:00N 16°47' W 062°08'3 5.9
2017-Apr-06 19:30N 16°44' W 062°06'3 5.8
2017-Apr-06 19:00N 16°42' W 062°04'3 6.5
2017-Apr-06 18:30N 16°39' W 062°02'3 6.6
2017-Apr-06 18:00N 16°37' W 062°00'3 6.7
2017-Apr-06 17:30N 16°34' W 061°58'3 6.3
2017-Apr-06 17:00N 16°31' W 061°57'3 6.4
2017-Apr-06 16:30N 16°28' W 061°55'3 6.2
2017-Apr-06 16:00N 16°26' W 061°53'3 6.5
2017-Apr-06 15:30N 16°23' W 061°51'3 6.3
2017-Apr-06 15:00N 16°20' W 061°50'2 3.6
2017-Apr-06 14:30N 16°19' W 061°49'0 0.4
2017-Apr-06 13:27N 16°19' W 061°48'0 0.0
2017-Apr-06 13:00N 16°19' W 061°48'0 0.0
2017-Apr-06 12:29N 16°19' W 061°48'0 0.0
2017-Apr-06 12:00N 16°19' W 061°48'0 0.4
2017-Apr-06 11:30N 16°18' W 061°48'2 4.2
2017-Apr-06 10:58N 16°16' W 061°49'22 6.6
2017-Apr-06 07:40N 15°55' W 061°48'1 5.3
2017-Apr-06 07:29N 15°54' W 061°47'  

Dump ship's entire track history